sensor_id;sensor_type;location;lat;lon;timestamp;pressure;altitude;pressure_sealevel;temperature;humidity
31595;BME280;18200;48.726;8.892;2022-08-21T00:03:24;96909.81;;;25.62;38.95
31595;BME280;18200;48.726;8.892;2022-08-21T00:07:24;96911.50;;;25.38;39.45
31595;BME280;18200;48.726;8.892;2022-08-21T00:11:25;96899.97;;;25.52;39.34
31595;BME280;18200;48.726;8.892;2022-08-21T00:15:30;96898.41;;;25.42;39.43
31595;BME280;18200;48.726;8.892;2022-08-21T00:19:31;96906.75;;;25.17;38.80
31595;BME280;18200;48.726;8.892;2022-08-21T00:23:34;96906.38;;;25.49;39.38
31595;BME280;18200;48.726;8.892;2022-08-21T00:27:35;96902.25;;;25.75;38.81
31595;BME280;18200;48.726;8.892;2022-08-21T00:31:36;96885.03;;;25.53;38.24
31595;BME280;18200;48.726;8.892;2022-08-21T00:35:39;96888.19;;;25.30;39.30
31595;BME280;18200;48.726;8.892;2022-08-21T00:39:41;96886.53;;;24.42;40.51
31595;BME280;18200;48.726;8.892;2022-08-21T00:43:41;96897.22;;;24.15;42.29
31595;BME280;18200;48.726;8.892;2022-08-21T00:47:41;96886.47;;;24.08;42.23
31595;BME280;18200;48.726;8.892;2022-08-21T00:51:53;96885.13;;;24.38;40.72
31595;BME280;18200;48.726;8.892;2022-08-21T00:55:55;96890.72;;;23.84;42.78
31595;BME280;18200;48.726;8.892;2022-08-21T00:59:58;96884.81;;;24.11;41.79
31595;BME280;18200;48.726;8.892;2022-08-21T01:03:59;96882.28;;;24.29;42.25
31595;BME280;18200;48.726;8.892;2022-08-21T01:08:00;96876.25;;;24.21;41.32
31595;BME280;18200;48.726;8.892;2022-08-21T01:12:01;96873.00;;;24.48;41.21
31595;BME280;18200;48.726;8.892;2022-08-21T01:16:04;96879.09;;;24.64;40.76
31595;BME280;18200;48.726;8.892;2022-08-21T01:20:08;96882.56;;;24.43;41.83
31595;BME280;18200;48.726;8.892;2022-08-21T01:24:09;96873.22;;;24.41;40.69
31595;BME280;18200;48.726;8.892;2022-08-21T01:28:13;96871.84;;;24.24;41.97
31595;BME280;18200;48.726;8.892;2022-08-21T01:32:16;96870.81;;;24.43;40.76
31595;BME280;18200;48.726;8.892;2022-08-21T01:36:17;96872.00;;;24.54;40.98
31595;BME280;18200;48.726;8.892;2022-08-21T01:40:18;96866.16;;;24.18;41.79
31595;BME280;18200;48.726;8.892;2022-08-21T01:44:22;96869.09;;;24.71;40.59
31595;BME280;18200;48.726;8.892;2022-08-21T01:48:22;96869.91;;;24.58;40.72
31595;BME280;18200;48.726;8.892;2022-08-21T01:52:23;96866.00;;;24.34;40.78
31595;BME280;18200;48.726;8.892;2022-08-21T01:56:24;96859.22;;;24.60;40.58
31595;BME280;18200;48.726;8.892;2022-08-21T02:00:26;96859.44;;;23.81;41.51
31595;BME280;18200;48.726;8.892;2022-08-21T02:04:26;96862.56;;;23.30;43.65
31595;BME280;18200;48.726;8.892;2022-08-21T02:08:27;96855.84;;;23.72;43.03
31595;BME280;18200;48.726;8.892;2022-08-21T02:12:28;96859.09;;;23.92;42.19
31595;BME280;18200;48.726;8.892;2022-08-21T02:16:28;96855.25;;;23.89;41.42
31595;BME280;18200;48.726;8.892;2022-08-21T02:20:42;96853.63;;;23.67;41.81
31595;BME280;18200;48.726;8.892;2022-08-21T02:24:42;96853.97;;;23.28;43.37
31595;BME280;18200;48.726;8.892;2022-08-21T02:28:43;96845.38;;;23.79;42.17
31595;BME280;18200;48.726;8.892;2022-08-21T02:32:44;96839.56;;;23.90;41.61
31595;BME280;18200;48.726;8.892;2022-08-21T02:36:44;96836.72;;;23.94;42.20
31595;BME280;18200;48.726;8.892;2022-08-21T02:40:47;96840.03;;;23.76;41.75
31595;BME280;18200;48.726;8.892;2022-08-21T02:44:48;96833.31;;;23.52;42.81
31595;BME280;18200;48.726;8.892;2022-08-21T02:48:49;96831.22;;;23.56;42.28
31595;BME280;18200;48.726;8.892;2022-08-21T02:52:49;96829.72;;;23.55;42.05
31595;BME280;18200;48.726;8.892;2022-08-21T02:56:51;96834.75;;;23.44;42.44
31595;BME280;18200;48.726;8.892;2022-08-21T03:00:52;96832.47;;;23.13;43.17
31595;BME280;18200;48.726;8.892;2022-08-21T03:04:52;96834.56;;;23.22;42.92
31595;BME280;18200;48.726;8.892;2022-08-21T03:08:52;96831.28;;;23.27;43.18
31595;BME280;18200;48.726;8.892;2022-08-21T03:12:53;96836.81;;;23.40;42.40
31595;BME280;18200;48.726;8.892;2022-08-21T03:16:54;96834.94;;;23.37;42.41
31595;BME280;18200;48.726;8.892;2022-08-21T03:20:54;96833.22;;;23.68;42.10
31595;BME280;18200;48.726;8.892;2022-08-21T03:24:55;96829.16;;;23.72;42.10
31595;BME280;18200;48.726;8.892;2022-08-21T03:28:57;96834.53;;;23.51;42.57
31595;BME280;18200;48.726;8.892;2022-08-21T03:32:58;96833.31;;;23.52;42.09
31595;BME280;18200;48.726;8.892;2022-08-21T03:36:59;96841.13;;;23.66;41.32
31595;BME280;18200;48.726;8.892;2022-08-21T03:41:00;96839.06;;;22.87;43.09
31595;BME280;18200;48.726;8.892;2022-08-21T03:45:02;96839.41;;;22.89;43.87
31595;BME280;18200;48.726;8.892;2022-08-21T03:49:02;96839.78;;;23.58;42.38
31595;BME280;18200;48.726;8.892;2022-08-21T03:53:04;96841.38;;;23.30;42.55
31595;BME280;18200;48.726;8.892;2022-08-21T03:57:04;96846.91;;;23.43;42.56
31595;BME280;18200;48.726;8.892;2022-08-21T04:01:05;96841.91;;;23.12;43.03
31595;BME280;18200;48.726;8.892;2022-08-21T04:05:07;96850.00;;;23.03;42.91
31595;BME280;18200;48.726;8.892;2022-08-21T04:09:07;96846.53;;;22.87;43.14
31595;BME280;18200;48.726;8.892;2022-08-21T04:13:08;96846.50;;;23.15;43.45
31595;BME280;18200;48.726;8.892;2022-08-21T04:17:08;96861.50;;;23.11;43.09
31595;BME280;18200;48.726;8.892;2022-08-21T04:21:10;96855.53;;;23.29;42.82
31595;BME280;18200;48.726;8.892;2022-08-21T04:25:13;96860.47;;;23.21;43.16
31595;BME280;18200;48.726;8.892;2022-08-21T04:33:14;96874.81;;;23.12;42.63
31595;BME280;18200;48.726;8.892;2022-08-21T04:37:14;96878.81;;;22.79;42.89
31595;BME280;18200;48.726;8.892;2022-08-21T04:41:15;96886.41;;;22.59;43.03
31595;BME280;18200;48.726;8.892;2022-08-21T04:45:24;96880.38;;;23.09;43.04
31595;BME280;18200;48.726;8.892;2022-08-21T04:49:25;96883.63;;;23.33;41.52
31595;BME280;18200;48.726;8.892;2022-08-21T04:53:34;96884.97;;;23.41;41.80
31595;BME280;18200;48.726;8.892;2022-08-21T04:57:37;96893.53;;;23.43;41.80
31595;BME280;18200;48.726;8.892;2022-08-21T05:01:38;96887.97;;;23.30;42.63
31595;BME280;18200;48.726;8.892;2022-08-21T05:05:40;96885.34;;;23.27;42.30
31595;BME280;18200;48.726;8.892;2022-08-21T05:09:41;96888.34;;;23.03;42.38
31595;BME280;18200;48.726;8.892;2022-08-21T05:13:41;96900.06;;;22.75;42.91
31595;BME280;18200;48.726;8.892;2022-08-21T05:17:41;96898.13;;;23.17;42.10
31595;BME280;18200;48.726;8.892;2022-08-21T05:21:45;96902.09;;;22.87;43.01
31595;BME280;18200;48.726;8.892;2022-08-21T05:25:45;96907.00;;;22.80;43.14
31595;BME280;18200;48.726;8.892;2022-08-21T05:29:46;96903.13;;;22.93;43.63
31595;BME280;18200;48.726;8.892;2022-08-21T05:33:46;96909.78;;;23.50;42.48
31595;BME280;18200;48.726;8.892;2022-08-21T05:37:46;96903.44;;;23.53;41.64
31595;BME280;18200;48.726;8.892;2022-08-21T05:41:47;96901.22;;;23.48;41.89
31595;BME280;18200;48.726;8.892;2022-08-21T05:45:47;96904.78;;;23.86;41.12
31595;BME280;18200;48.726;8.892;2022-08-21T05:49:48;96908.94;;;24.03;41.13
31595;BME280;18200;48.726;8.892;2022-08-21T05:53:48;96916.84;;;23.63;41.91
31595;BME280;18200;48.726;8.892;2022-08-21T05:57:49;96909.97;;;23.43;42.60
31595;BME280;18200;48.726;8.892;2022-08-21T06:01:49;96905.56;;;24.12;41.46
31595;BME280;18200;48.726;8.892;2022-08-21T06:05:51;96909.97;;;24.68;40.16
31595;BME280;18200;48.726;8.892;2022-08-21T06:09:52;96908.63;;;24.86;40.30
31595;BME280;18200;48.726;8.892;2022-08-21T06:13:53;96914.53;;;24.97;39.73
31595;BME280;18200;48.726;8.892;2022-08-21T06:17:54;96911.50;;;25.38;38.60
31595;BME280;18200;48.726;8.892;2022-08-21T06:21:55;96906.88;;;25.35;39.49
31595;BME280;18200;48.726;8.892;2022-08-21T06:25:55;96911.88;;;25.06;40.21
31595;BME280;18200;48.726;8.892;2022-08-21T06:29:57;96911.66;;;25.22;40.76
31595;BME280;18200;48.726;8.892;2022-08-21T06:33:57;96904.81;;;25.70;39.31
31595;BME280;18200;48.726;8.892;2022-08-21T06:37:58;96900.75;;;26.14;39.07
31595;BME280;18200;48.726;8.892;2022-08-21T06:41:59;96900.66;;;26.27;38.51
31595;BME280;18200;48.726;8.892;2022-08-21T06:46:02;96895.91;;;25.96;38.57
31595;BME280;18200;48.726;8.892;2022-08-21T06:50:03;96900.44;;;26.70;37.90
31595;BME280;18200;48.726;8.892;2022-08-21T06:54:05;96895.63;;;26.43;38.47
31595;BME280;18200;48.726;8.892;2022-08-21T06:58:05;96895.38;;;26.68;38.78
31595;BME280;18200;48.726;8.892;2022-08-21T07:02:06;96892.53;;;26.81;37.85
31595;BME280;18200;48.726;8.892;2022-08-21T07:06:09;96892.53;;;26.81;38.35
31595;BME280;18200;48.726;8.892;2022-08-21T07:10:10;96887.00;;;27.08;38.45
31595;BME280;18200;48.726;8.892;2022-08-21T07:14:11;96882.72;;;26.98;38.59
31595;BME280;18200;48.726;8.892;2022-08-21T07:18:11;96886.84;;;27.90;37.03
31595;BME280;18200;48.726;8.892;2022-08-21T07:22:14;96883.16;;;28.34;36.22
31595;BME280;18200;48.726;8.892;2022-08-21T07:26:20;96891.19;;;28.94;33.71
31595;BME280;18200;48.726;8.892;2022-08-21T07:30:22;96884.06;;;29.02;33.44
31595;BME280;18200;48.726;8.892;2022-08-21T07:34:22;96875.25;;;29.57;32.71
31595;BME280;18200;48.726;8.892;2022-08-21T07:38:23;96874.25;;;30.18;32.64
31595;BME280;18200;48.726;8.892;2022-08-21T07:42:23;96879.00;;;30.18;31.48
31595;BME280;18200;48.726;8.892;2022-08-21T07:46:25;96888.03;;;30.13;31.38
31595;BME280;18200;48.726;8.892;2022-08-21T07:50:25;96875.28;;;30.21;31.10
31595;BME280;18200;48.726;8.892;2022-08-21T07:54:26;96880.00;;;30.70;29.89
31595;BME280;18200;48.726;8.892;2022-08-21T07:58:26;96879.03;;;31.13;28.87
31595;BME280;18200;48.726;8.892;2022-08-21T08:02:28;96880.16;;;30.81;29.49
31595;BME280;18200;48.726;8.892;2022-08-21T08:06:29;96871.41;;;31.33;28.64
31595;BME280;18200;48.726;8.892;2022-08-21T08:10:30;96873.69;;;31.35;28.62
31595;BME280;18200;48.726;8.892;2022-08-21T08:14:31;96864.97;;;31.73;27.49
31595;BME280;18200;48.726;8.892;2022-08-21T08:18:31;96869.06;;;31.78;28.27
31595;BME280;18200;48.726;8.892;2022-08-21T08:22:33;96862.31;;;31.84;27.46
31595;BME280;18200;48.726;8.892;2022-08-21T08:26:34;96857.22;;;32.08;27.17
31595;BME280;18200;48.726;8.892;2022-08-21T08:30:35;96855.28;;;32.26;27.55
31595;BME280;18200;48.726;8.892;2022-08-21T08:34:36;96855.84;;;31.67;27.91
31595;BME280;18200;48.726;8.892;2022-08-21T08:38:37;96853.19;;;30.81;28.13
31595;BME280;18200;48.726;8.892;2022-08-21T08:42:38;96847.59;;;32.09;26.74
31595;BME280;18200;48.726;8.892;2022-08-21T08:46:41;96839.19;;;32.94;26.21
31595;BME280;18200;48.726;8.892;2022-08-21T08:50:49;96844.06;;;33.10;26.14
31595;BME280;18200;48.726;8.892;2022-08-21T08:55:23;96834.72;;;33.30;25.77
31595;BME280;18200;48.726;8.892;2022-08-21T08:59:38;96830.44;;;33.45;25.53
31595;BME280;18200;48.726;8.892;2022-08-21T09:03:39;96821.56;;;34.19;24.65
31595;BME280;18200;48.726;8.892;2022-08-21T09:12:17;96827.41;;;33.32;25.35
31595;BME280;18200;48.726;8.892;2022-08-21T09:21:00;96824.78;;;35.08;23.11
31595;BME280;18200;48.726;8.892;2022-08-21T09:25:08;96822.00;;;34.51;23.29
31595;BME280;18200;48.726;8.892;2022-08-21T09:29:12;96813.50;;;34.78;23.42
31595;BME280;18200;48.726;8.892;2022-08-21T09:33:13;96804.22;;;35.76;22.64
31595;BME280;18200;48.726;8.892;2022-08-21T09:37:17;96808.19;;;35.62;22.86
31595;BME280;18200;48.726;8.892;2022-08-21T09:41:27;96805.69;;;36.36;21.63
31595;BME280;18200;48.726;8.892;2022-08-21T09:45:28;96815.03;;;35.26;23.08
31595;BME280;18200;48.726;8.892;2022-08-21T09:49:31;96808.69;;;35.90;21.90
31595;BME280;18200;48.726;8.892;2022-08-21T09:53:31;96815.69;;;34.39;23.51
31595;BME280;18200;48.726;8.892;2022-08-21T09:57:32;96809.31;;;35.48;22.24
31595;BME280;18200;48.726;8.892;2022-08-21T10:01:43;96814.22;;;34.16;23.56
31595;BME280;18200;48.726;8.892;2022-08-21T10:06:05;96792.41;;;35.64;21.78
31595;BME280;18200;48.726;8.892;2022-08-21T10:10:18;96784.63;;;36.30;21.23
31595;BME280;18200;48.726;8.892;2022-08-21T10:14:42;96786.28;;;36.44;21.42
31595;BME280;18200;48.726;8.892;2022-08-21T10:27:44;96782.63;;;36.92;19.89
31595;BME280;18200;48.726;8.892;2022-08-21T10:36:20;96774.13;;;35.28;21.33
31595;BME280;18200;48.726;8.892;2022-08-21T10:40:29;96770.09;;;36.55;20.06
31595;BME280;18200;48.726;8.892;2022-08-21T10:44:35;96766.13;;;36.27;20.64
31595;BME280;18200;48.726;8.892;2022-08-21T10:48:47;96765.81;;;36.92;19.54
31595;BME280;18200;48.726;8.892;2022-08-21T10:57:07;96747.78;;;36.69;19.91
31595;BME280;18200;48.726;8.892;2022-08-21T11:01:13;96757.34;;;38.32;18.13
31595;BME280;18200;48.726;8.892;2022-08-21T11:05:25;96759.06;;;37.95;18.46
31595;BME280;18200;48.726;8.892;2022-08-21T11:09:27;96756.00;;;37.17;19.09
31595;BME280;18200;48.726;8.892;2022-08-21T11:13:41;96744.34;;;36.38;19.40
31595;BME280;18200;48.726;8.892;2022-08-21T11:17:47;96746.81;;;36.23;19.43
31595;BME280;18200;48.726;8.892;2022-08-21T11:21:59;96748.91;;;38.71;17.48
31595;BME280;18200;48.726;8.892;2022-08-21T11:26:11;96740.50;;;35.93;19.97
31595;BME280;18200;48.726;8.892;2022-08-21T11:30:14;96751.72;;;36.79;18.83
31595;BME280;18200;48.726;8.892;2022-08-21T11:34:42;96736.88;;;36.84;19.07
31595;BME280;18200;48.726;8.892;2022-08-21T11:38:57;96741.41;;;36.87;18.72
31595;BME280;18200;48.726;8.892;2022-08-21T11:43:09;96742.09;;;35.29;19.32
31595;BME280;18200;48.726;8.892;2022-08-21T11:51:23;96729.06;;;37.90;17.94
31595;BME280;18200;48.726;8.892;2022-08-21T11:55:40;96729.31;;;40.23;15.56
31595;BME280;18200;48.726;8.892;2022-08-21T11:59:47;96731.25;;;40.79;15.41
31595;BME280;18200;48.726;8.892;2022-08-21T12:03:59;96733.31;;;40.78;15.50
31595;BME280;18200;48.726;8.892;2022-08-21T12:12:22;96715.63;;;38.75;16.48
31595;BME280;18200;48.726;8.892;2022-08-21T12:16:37;96717.13;;;38.63;16.63
31595;BME280;18200;48.726;8.892;2022-08-21T12:24:45;96703.66;;;36.37;19.17
31595;BME280;18200;48.726;8.892;2022-08-21T12:28:47;96699.94;;;36.67;18.42
31595;BME280;18200;48.726;8.892;2022-08-21T12:33:00;96693.88;;;38.16;17.25
31595;BME280;18200;48.726;8.892;2022-08-21T12:41:20;96700.13;;;38.35;16.81
31595;BME280;18200;48.726;8.892;2022-08-21T12:45:31;96690.72;;;36.90;18.30
31595;BME280;18200;48.726;8.892;2022-08-21T12:49:39;96690.00;;;37.92;17.34
31595;BME280;18200;48.726;8.892;2022-08-21T12:53:55;96687.19;;;35.32;18.98
31595;BME280;18200;48.726;8.892;2022-08-21T12:57:56;96689.41;;;37.42;18.06
31595;BME280;18200;48.726;8.892;2022-08-21T13:01:59;96683.56;;;36.33;18.79
31595;BME280;18200;48.726;8.892;2022-08-21T13:06:05;96686.66;;;37.94;17.37
31595;BME280;18200;48.726;8.892;2022-08-21T13:10:26;96680.94;;;36.22;19.23
31595;BME280;18200;48.726;8.892;2022-08-21T13:14:39;96689.06;;;35.77;18.91
31595;BME280;18200;48.726;8.892;2022-08-21T13:18:54;96688.41;;;37.07;18.29
31595;BME280;18200;48.726;8.892;2022-08-21T13:22:54;96680.91;;;37.99;17.65
31595;BME280;18200;48.726;8.892;2022-08-21T13:26:56;96688.44;;;37.78;17.42
31595;BME280;18200;48.726;8.892;2022-08-21T13:30:56;96683.41;;;37.90;17.15
31595;BME280;18200;48.726;8.892;2022-08-21T13:34:57;96686.66;;;38.67;16.97
31595;BME280;18200;48.726;8.892;2022-08-21T13:39:00;96679.13;;;38.49;17.18
31595;BME280;18200;48.726;8.892;2022-08-21T13:43:02;96679.75;;;38.55;17.19
31595;BME280;18200;48.726;8.892;2022-08-21T13:47:04;96678.56;;;40.15;16.42
31595;BME280;18200;48.726;8.892;2022-08-21T13:51:05;96670.09;;;40.44;15.70
31595;BME280;18200;48.726;8.892;2022-08-21T13:55:13;96664.88;;;40.63;15.14
31595;BME280;18200;48.726;8.892;2022-08-21T13:59:36;96661.75;;;40.31;16.20
31595;BME280;18200;48.726;8.892;2022-08-21T14:03:44;96655.03;;;39.70;16.67
31595;BME280;18200;48.726;8.892;2022-08-21T14:07:46;96658.78;;;37.25;18.89
31595;BME280;18200;48.726;8.892;2022-08-21T14:11:47;96667.00;;;40.34;17.00
31595;BME280;18200;48.726;8.892;2022-08-21T14:15:54;96657.84;;;40.99;16.72
31595;BME280;18200;48.726;8.892;2022-08-21T14:19:55;96664.19;;;39.21;17.75
31595;BME280;18200;48.726;8.892;2022-08-21T14:24:11;96651.06;;;41.93;15.77
31595;BME280;18200;48.726;8.892;2022-08-21T14:28:31;96652.19;;;42.53;14.52
31595;BME280;18200;48.726;8.892;2022-08-21T14:32:38;96645.28;;;40.06;17.04
31595;BME280;18200;48.726;8.892;2022-08-21T14:36:39;96654.78;;;37.78;19.24
31595;BME280;18200;48.726;8.892;2022-08-21T14:40:40;96650.22;;;38.41;18.84
31595;BME280;18200;48.726;8.892;2022-08-21T14:44:42;96644.81;;;39.38;17.43
31595;BME280;18200;48.726;8.892;2022-08-21T14:48:43;96639.69;;;40.57;16.75
31595;BME280;18200;48.726;8.892;2022-08-21T14:52:43;96642.63;;;38.49;17.92
31595;BME280;18200;48.726;8.892;2022-08-21T14:56:45;96639.03;;;40.36;16.82
31595;BME280;18200;48.726;8.892;2022-08-21T15:00:45;96631.34;;;40.37;16.54
31595;BME280;18200;48.726;8.892;2022-08-21T15:04:46;96634.28;;;40.16;16.35
31595;BME280;18200;48.726;8.892;2022-08-21T15:08:47;96625.38;;;39.69;17.28
31595;BME280;18200;48.726;8.892;2022-08-21T15:12:47;96624.34;;;39.87;16.97
31595;BME280;18200;48.726;8.892;2022-08-21T15:16:50;96624.34;;;39.87;16.77
31595;BME280;18200;48.726;8.892;2022-08-21T15:20:51;96619.75;;;40.55;16.17
31595;BME280;18200;48.726;8.892;2022-08-21T15:24:51;96621.88;;;40.19;16.35
31595;BME280;18200;48.726;8.892;2022-08-21T15:28:52;96631.81;;;38.53;17.66
31595;BME280;18200;48.726;8.892;2022-08-21T15:32:52;96623.53;;;39.79;16.70
31595;BME280;18200;48.726;8.892;2022-08-21T15:36:54;96618.84;;;40.09;16.26
31595;BME280;18200;48.726;8.892;2022-08-21T15:40:54;96626.19;;;40.63;16.07
31595;BME280;18200;48.726;8.892;2022-08-21T15:44:56;96609.78;;;39.39;16.71
31595;BME280;18200;48.726;8.892;2022-08-21T15:48:57;96613.88;;;38.56;17.61
31595;BME280;18200;48.726;8.892;2022-08-21T15:52:57;96607.69;;;38.24;17.90
31595;BME280;18200;48.726;8.892;2022-08-21T15:56:58;96600.00;;;36.24;19.85
31595;BME280;18200;48.726;8.892;2022-08-21T16:01:00;96597.59;;;38.08;18.09
31595;BME280;18200;48.726;8.892;2022-08-21T16:05:00;96593.50;;;40.60;15.81
31595;BME280;18200;48.726;8.892;2022-08-21T16:09:01;96595.63;;;39.52;16.63
31595;BME280;18200;48.726;8.892;2022-08-21T16:13:04;96590.69;;;39.45;16.39
31595;BME280;18200;48.726;8.892;2022-08-21T16:17:07;96596.84;;;38.41;17.72
31595;BME280;18200;48.726;8.892;2022-08-21T16:21:08;96583.63;;;39.03;17.31
31595;BME280;18200;48.726;8.892;2022-08-21T16:25:08;96590.44;;;39.64;16.70
31595;BME280;18200;48.726;8.892;2022-08-21T16:29:08;96582.72;;;39.93;16.25
31595;BME280;18200;48.726;8.892;2022-08-21T16:33:20;96584.28;;;39.17;17.31
31595;BME280;18200;48.726;8.892;2022-08-21T16:37:20;96587.66;;;37.93;18.16
31595;BME280;18200;48.726;8.892;2022-08-21T16:41:23;96586.19;;;37.92;18.40
31595;BME280;18200;48.726;8.892;2022-08-21T16:45:24;96586.38;;;37.55;19.04
31595;BME280;18200;48.726;8.892;2022-08-21T16:49:25;96580.13;;;37.49;18.60
31595;BME280;18200;48.726;8.892;2022-08-21T16:53:25;96578.19;;;37.31;19.31
31595;BME280;18200;48.726;8.892;2022-08-21T16:57:26;96578.94;;;38.44;18.23
31595;BME280;18200;48.726;8.892;2022-08-21T17:01:29;96575.47;;;36.81;19.60
31595;BME280;18200;48.726;8.892;2022-08-21T17:05:30;96576.03;;;37.63;18.44
31595;BME280;18200;48.726;8.892;2022-08-21T17:09:30;96579.81;;;37.66;18.64
31595;BME280;18200;48.726;8.892;2022-08-21T17:13:31;96570.25;;;36.90;20.05
31595;BME280;18200;48.726;8.892;2022-08-21T17:17:34;96577.34;;;36.59;20.76
31595;BME280;18200;48.726;8.892;2022-08-21T17:21:35;96573.63;;;36.01;20.32
31595;BME280;18200;48.726;8.892;2022-08-21T17:25:37;96575.38;;;35.80;21.04
31595;BME280;18200;48.726;8.892;2022-08-21T17:29:41;96575.31;;;35.43;20.70
31595;BME280;18200;48.726;8.892;2022-08-21T17:33:44;96577.06;;;36.44;20.68
31595;BME280;18200;48.726;8.892;2022-08-21T17:37:49;96565.06;;;35.51;20.90
31595;BME280;18200;48.726;8.892;2022-08-21T17:41:50;96576.56;;;35.47;21.37
31595;BME280;18200;48.726;8.892;2022-08-21T17:45:51;96580.66;;;35.17;21.72
31595;BME280;18200;48.726;8.892;2022-08-21T17:49:52;96585.78;;;35.61;21.52
31595;BME280;18200;48.726;8.892;2022-08-21T17:53:53;96588.50;;;35.48;21.69
31595;BME280;18200;48.726;8.892;2022-08-21T17:57:54;96592.06;;;36.28;21.53
31595;BME280;18200;48.726;8.892;2022-08-21T18:01:54;96596.75;;;36.02;21.96
31595;BME280;18200;48.726;8.892;2022-08-21T18:06:00;96582.91;;;35.91;21.53
31595;BME280;18200;48.726;8.892;2022-08-21T18:10:04;96590.03;;;35.67;21.97
31595;BME280;18200;48.726;8.892;2022-08-21T18:14:04;96585.94;;;35.50;22.13
31595;BME280;18200;48.726;8.892;2022-08-21T18:18:05;96591.50;;;35.26;22.31
31595;BME280;18200;48.726;8.892;2022-08-21T18:22:06;96584.16;;;34.63;23.49
31595;BME280;18200;48.726;8.892;2022-08-21T18:26:07;96590.41;;;34.75;22.76
31595;BME280;18200;48.726;8.892;2022-08-21T18:30:09;96602.34;;;33.88;24.67
31595;BME280;18200;48.726;8.892;2022-08-21T18:34:17;96607.41;;;33.90;24.28
31595;BME280;18200;48.726;8.892;2022-08-21T18:38:19;96607.25;;;34.23;24.29
31595;BME280;18200;48.726;8.892;2022-08-21T18:42:20;96616.41;;;34.18;24.23
31595;BME280;18200;48.726;8.892;2022-08-21T18:46:21;96625.63;;;34.02;24.20
31595;BME280;18200;48.726;8.892;2022-08-21T18:50:26;96616.91;;;34.22;24.60
31595;BME280;18200;48.726;8.892;2022-08-21T18:54:26;96628.00;;;33.70;24.46
31595;BME280;18200;48.726;8.892;2022-08-21T18:58:27;96627.31;;;33.36;25.10
31595;BME280;18200;48.726;8.892;2022-08-21T19:02:28;96629.06;;;33.50;24.96
31595;BME280;18200;48.726;8.892;2022-08-21T19:06:28;96631.88;;;32.51;26.46
31595;BME280;18200;48.726;8.892;2022-08-21T19:10:28;96634.63;;;31.75;27.72
31595;BME280;18200;48.726;8.892;2022-08-21T19:14:29;96637.25;;;31.11;29.02
31595;BME280;18200;48.726;8.892;2022-08-21T19:18:32;96639.31;;;31.53;28.63
31595;BME280;18200;48.726;8.892;2022-08-21T19:22:34;96636.56;;;32.17;27.36
31595;BME280;18200;48.726;8.892;2022-08-21T19:26:34;96634.84;;;32.31;27.53
31595;BME280;18200;48.726;8.892;2022-08-21T19:30:42;96637.38;;;32.40;28.11
31595;BME280;18200;48.726;8.892;2022-08-21T19:34:42;96642.94;;;32.40;27.74
31595;BME280;18200;48.726;8.892;2022-08-21T19:38:43;96647.00;;;32.39;27.48
31595;BME280;18200;48.726;8.892;2022-08-21T19:42:43;96647.63;;;31.47;28.59
31595;BME280;18200;48.726;8.892;2022-08-21T19:46:44;96650.31;;;30.02;31.39
31595;BME280;18200;48.726;8.892;2022-08-21T19:50:44;96657.88;;;30.27;30.48
31595;BME280;18200;48.726;8.892;2022-08-21T19:54:45;96653.72;;;30.89;30.23
31595;BME280;18200;48.726;8.892;2022-08-21T19:58:46;96654.88;;;31.39;28.96
31595;BME280;18200;48.726;8.892;2022-08-21T20:02:47;96654.22;;;31.55;28.51
31595;BME280;18200;48.726;8.892;2022-08-21T20:06:47;96655.91;;;31.42;28.75
31595;BME280;18200;48.726;8.892;2022-08-21T20:10:48;96664.50;;;31.07;29.44
31595;BME280;18200;48.726;8.892;2022-08-21T20:14:49;96658.28;;;31.23;29.40
31595;BME280;18200;48.726;8.892;2022-08-21T20:18:50;96654.50;;;30.63;30.51
31595;BME280;18200;48.726;8.892;2022-08-21T20:22:51;96658.84;;;30.44;30.12
31595;BME280;18200;48.726;8.892;2022-08-21T20:26:51;96663.97;;;30.51;30.44
31595;BME280;18200;48.726;8.892;2022-08-21T20:30:51;96662.78;;;30.32;30.94
31595;BME280;18200;48.726;8.892;2022-08-21T20:34:52;96660.28;;;29.94;31.48
31595;BME280;18200;48.726;8.892;2022-08-21T20:38:52;96660.41;;;30.05;31.17
31595;BME280;18200;48.726;8.892;2022-08-21T20:42:54;96658.34;;;28.96;32.89
31595;BME280;18200;48.726;8.892;2022-08-21T20:46:56;96655.53;;;29.25;32.40
31595;BME280;18200;48.726;8.892;2022-08-21T20:55:44;96648.88;;;29.72;31.20
31595;BME280;18200;48.726;8.892;2022-08-21T20:59:53;96647.47;;;29.76;30.95
31595;BME280;18200;48.726;8.892;2022-08-21T21:04:02;96657.88;;;29.67;31.04
31595;BME280;18200;48.726;8.892;2022-08-21T21:08:11;96649.91;;;29.54;31.52
31595;BME280;18200;48.726;8.892;2022-08-21T21:12:18;96644.66;;;27.57;34.49
31595;BME280;18200;48.726;8.892;2022-08-21T21:16:25;96642.53;;;27.52;35.11
31595;BME280;18200;48.726;8.892;2022-08-21T21:20:33;96651.72;;;28.35;33.23
31595;BME280;18200;48.726;8.892;2022-08-21T21:24:57;96657.47;;;28.46;32.83
31595;BME280;18200;48.726;8.892;2022-08-21T21:29:23;96645.66;;;28.60;32.14
31595;BME280;18200;48.726;8.892;2022-08-21T21:33:24;96655.22;;;28.59;32.00
31595;BME280;18200;48.726;8.892;2022-08-21T21:37:41;96649.84;;;28.56;32.22
31595;BME280;18200;48.726;8.892;2022-08-21T21:41:58;96655.84;;;28.01;33.12
31595;BME280;18200;48.726;8.892;2022-08-21T21:46:17;96654.97;;;27.72;32.87
31595;BME280;18200;48.726;8.892;2022-08-21T21:50:41;96643.59;;;27.79;33.16
31595;BME280;18200;48.726;8.892;2022-08-21T21:59:17;96649.91;;;27.94;33.41
31595;BME280;18200;48.726;8.892;2022-08-21T22:03:27;96650.31;;;27.78;33.33
31595;BME280;18200;48.726;8.892;2022-08-21T22:07:47;96654.09;;;27.33;33.94
31595;BME280;18200;48.726;8.892;2022-08-21T22:16:05;96649.59;;;27.53;33.96
31595;BME280;18200;48.726;8.892;2022-08-21T22:20:20;96653.91;;;27.45;34.02
31595;BME280;18200;48.726;8.892;2022-08-21T22:24:26;96658.66;;;26.43;35.72
31595;BME280;18200;48.726;8.892;2022-08-21T22:28:31;96662.50;;;26.37;35.79
31595;BME280;18200;48.726;8.892;2022-08-21T22:36:42;96652.19;;;26.82;34.27